Linndale, Ohio
Current Conditions -  °F | °C
As of 11:51 PM on Monday 20 Oct 2014 (Local Time) from KCLE Reporting Station
Haze Haze  
Wind Chill: 52°   Ceiling: 1800
Heat Index: 52°   Visibility: 4mi
Dew Point: 51°   Wind: 6mph
Humidity: 97%   Direction: 240°WSW
Pressure: 29.87"   Gusts: NA
Location:  41.4315°N, 81.8114°W
Report Text: KCLE 210351Z 24005KT 4SM BR FEW005 FEW010 OVC018 11/11 A2987 RMK AO2 RAB19E28 SLP115 P0000 T01110106 $
Loading
Personal Weather Stations






























Interactive Weather Map
Tropical Storm Tracking
New forecast layout! Learn more

10-Day Weather Forecast

Advertisements
Track Severe Weather on mobile